createdAt,value
2019-04-04T00:00:47.686Z,11.90
2019-04-04T00:01:53.432Z,11.89
2019-04-04T00:02:57.940Z,11.85
2019-04-04T00:04:02.157Z,11.84
2019-04-04T00:05:06.542Z,11.82
2019-04-04T00:06:10.462Z,11.81
2019-04-04T00:07:14.642Z,11.81
2019-04-04T00:08:18.570Z,11.79
2019-04-04T00:09:22.418Z,11.78
2019-04-04T00:10:26.769Z,11.78
2019-04-04T00:11:31.014Z,11.77
2019-04-04T00:12:35.231Z,11.77
2019-04-04T00:13:40.041Z,11.77
2019-04-04T00:14:45.631Z,11.77
2019-04-04T00:15:50.254Z,11.76
2019-04-04T00:16:54.605Z,11.76
2019-04-04T00:17:58.726Z,11.73
2019-04-04T00:19:02.886Z,11.73
2019-04-04T00:20:06.938Z,11.71
2019-04-04T00:21:11.322Z,11.71
2019-04-04T00:22:15.641Z,11.70
2019-04-04T00:23:19.804Z,11.69
2019-04-04T00:24:24.296Z,11.71
2019-04-04T00:25:28.189Z,11.69
2019-04-04T00:26:32.252Z,11.71
2019-04-04T00:27:36.085Z,11.70
2019-04-04T00:28:40.061Z,11.70
2019-04-04T00:29:43.919Z,11.69
2019-04-04T00:30:48.407Z,11.69
2019-04-04T00:31:52.887Z,11.68
2019-04-04T00:32:57.206Z,11.71
2019-04-04T00:34:01.288Z,11.69
2019-04-04T00:35:05.426Z,11.66
2019-04-04T00:36:09.839Z,11.63
2019-04-04T00:37:13.920Z,11.59
2019-04-04T00:38:17.901Z,11.55
2019-04-04T00:39:21.736Z,11.52
2019-04-04T00:40:25.627Z,11.51
2019-04-04T00:41:29.955Z,11.48
2019-04-04T00:42:34.033Z,11.48
2019-04-04T00:43:38.179Z,11.47
2019-04-04T00:44:42.268Z,11.47
2019-04-04T00:45:46.429Z,11.46
2019-04-04T00:46:50.745Z,11.47
2019-04-04T00:47:54.580Z,11.49
2019-04-04T00:48:58.413Z,11.50
2019-04-04T00:50:06.110Z,11.50
2019-04-04T00:51:08.775Z,11.52
2019-04-04T00:52:12.921Z,11.52
2019-04-04T00:53:17.353Z,11.54
2019-04-04T00:54:21.350Z,11.54
2019-04-04T00:55:25.608Z,11.54
2019-04-04T00:56:29.443Z,11.53
2019-04-04T00:57:33.764Z,11.54
2019-04-04T00:58:38.042Z,11.54
2019-04-04T00:59:42.166Z,11.52
2019-04-04T01:00:46.157Z,11.52
2019-04-04T01:01:49.990Z,11.53
2019-04-04T01:02:55.041Z,11.52
2019-04-04T01:04:00.590Z,11.52
2019-04-04T01:05:05.682Z,11.50
2019-04-04T01:06:09.590Z,11.46
2019-04-04T01:07:13.766Z,11.46
2019-04-04T01:08:17.948Z,11.45
2019-04-04T01:09:22.153Z,11.45
2019-04-04T01:10:26.487Z,11.46
2019-04-04T01:11:30.997Z,11.47
2019-04-04T01:12:35.513Z,11.46
2019-04-04T01:13:39.511Z,11.47
2019-04-04T01:14:44.190Z,11.47
2019-04-04T01:15:48.384Z,11.47
2019-04-04T01:16:52.695Z,11.46
2019-04-04T01:17:56.903Z,11.47
2019-04-04T01:19:01.134Z,11.47
2019-04-04T01:20:08.755Z,11.46
2019-04-04T01:21:12.664Z,11.46
2019-04-04T01:22:16.570Z,11.46
2019-04-04T01:23:20.844Z,11.45
2019-04-04T01:24:24.673Z,11.45
2019-04-04T01:25:31.781Z,11.45
2019-04-04T01:26:35.168Z,11.43
2019-04-04T01:27:40.173Z,11.42
2019-04-04T01:28:44.081Z,11.40
2019-04-04T01:29:48.091Z,11.39
2019-04-04T01:30:52.046Z,11.37
2019-04-04T01:31:56.851Z,11.36
2019-04-04T01:33:03.560Z,11.35
2019-04-04T01:34:06.738Z,11.33
2019-04-04T01:35:10.929Z,11.32
2019-04-04T01:36:14.836Z,11.33
2019-04-04T01:37:19.410Z,11.34
2019-04-04T01:38:24.031Z,11.35
2019-04-04T01:39:30.842Z,11.35
2019-04-04T01:40:33.845Z,11.34
2019-04-04T01:41:38.324Z,11.31
2019-04-04T01:42:42.303Z,11.33
2019-04-04T01:43:46.527Z,11.31
2019-04-04T01:44:50.429Z,11.26
2019-04-04T01:45:54.900Z,11.24
2019-04-04T01:46:58.976Z,11.22
2019-04-04T01:48:02.802Z,11.20
2019-04-04T01:49:06.700Z,11.16
2019-04-04T01:50:11.450Z,11.14
2019-04-04T01:51:16.100Z,11.12
2019-04-04T01:52:19.922Z,11.09
2019-04-04T01:53:24.070Z,11.07
2019-04-04T01:54:29.967Z,11.06
2019-04-04T01:55:34.952Z,11.06
2019-04-04T01:56:39.497Z,11.03
2019-04-04T01:57:43.649Z,11.01
2019-04-04T01:58:47.731Z,10.98
2019-04-04T01:59:51.962Z,10.96
2019-04-04T02:00:56.196Z,10.97
2019-04-04T02:02:00.022Z,10.96
2019-04-04T02:03:03.924Z,10.87
2019-04-04T02:04:07.751Z,10.81
2019-04-04T02:05:11.837Z,10.76
2019-04-04T02:06:16.161Z,10.74
2019-04-04T02:07:20.485Z,10.70
2019-04-04T02:08:24.558Z,10.69
2019-04-04T02:09:28.386Z,10.68
2019-04-04T02:10:34.507Z,10.67
2019-04-04T02:11:38.870Z,10.67
2019-04-04T02:12:43.015Z,10.68
2019-04-04T02:13:46.913Z,10.68
2019-04-04T02:14:50.995Z,10.67
2019-04-04T02:15:55.399Z,10.67
2019-04-04T02:16:59.226Z,10.67
2019-04-04T02:18:03.375Z,10.67
2019-04-04T02:19:07.779Z,10.66
2019-04-04T02:20:12.114Z,10.65
2019-04-04T02:21:16.270Z,10.66
2019-04-04T02:22:20.422Z,10.64
2019-04-04T02:23:24.659Z,10.64
2019-04-04T02:24:29.755Z,10.63
2019-04-04T02:25:34.896Z,10.62
2019-04-04T02:26:39.021Z,10.60
2019-04-04T02:27:43.596Z,10.58
2019-04-04T02:28:47.826Z,10.58
2019-04-04T02:29:51.662Z,10.56
2019-04-04T02:30:55.911Z,10.55
2019-04-04T02:32:00.813Z,10.54
2019-04-04T02:33:04.791Z,10.54
2019-04-04T02:34:08.626Z,10.54
2019-04-04T02:35:12.945Z,10.54
2019-04-04T02:36:17.508Z,10.55
2019-04-04T02:37:22.097Z,10.56
2019-04-04T02:38:27.996Z,10.58
2019-04-04T02:39:35.356Z,10.59
2019-04-04T02:40:42.019Z,10.61
2019-04-04T02:41:47.714Z,10.63
2019-04-04T02:42:54.079Z,10.66
2019-04-04T02:43:59.411Z,10.64
2019-04-04T02:45:05.282Z,10.66
2019-04-04T02:46:11.670Z,10.67
2019-04-04T02:47:17.471Z,10.66
2019-04-04T02:48:23.322Z,10.68
2019-04-04T02:49:29.226Z,10.71
2019-04-04T02:50:35.694Z,10.72
2019-04-04T02:51:41.049Z,10.74
2019-04-04T02:52:46.098Z,10.76
2019-04-04T02:53:52.892Z,10.71
2019-04-04T02:54:58.161Z,10.68
2019-04-04T02:56:03.672Z,10.65
2019-04-04T02:57:09.460Z,10.64
2019-04-04T02:58:14.992Z,10.64
2019-04-04T02:59:21.569Z,10.65
2019-04-04T03:00:26.769Z,10.65
2019-04-04T03:01:32.261Z,10.66
2019-04-04T03:02:37.279Z,10.68
2019-04-04T03:03:42.295Z,10.70
2019-04-04T03:04:47.197Z,10.71
2019-04-04T03:05:52.342Z,10.72
2019-04-04T03:06:58.593Z,10.72
2019-04-04T03:08:04.140Z,10.73
2019-04-04T03:09:10.079Z,10.74
2019-04-04T03:10:16.529Z,10.75
2019-04-04T03:11:22.166Z,10.76
2019-04-04T03:12:27.014Z,10.76
2019-04-04T03:13:32.385Z,10.78
2019-04-04T03:14:37.605Z,10.79
2019-04-04T03:15:47.406Z,10.81
2019-04-04T03:16:48.582Z,10.80
2019-04-04T03:17:53.232Z,10.82
2019-04-04T03:18:57.050Z,10.82
2019-04-04T03:20:01.337Z,10.82
2019-04-04T03:21:05.679Z,10.84
2019-04-04T03:22:10.144Z,10.83
2019-04-04T03:23:14.053Z,10.84
2019-04-04T03:24:18.559Z,10.84
2019-04-04T03:25:22.818Z,10.84
2019-04-04T03:26:27.332Z,10.85
2019-04-04T03:27:31.316Z,10.84
2019-04-04T03:28:35.296Z,10.84
2019-04-04T03:29:40.188Z,10.86
2019-04-04T03:30:52.736Z,10.84
2019-04-04T03:31:51.034Z,10.85
2019-04-04T03:32:55.650Z,10.85
2019-04-04T03:34:08.988Z,10.85
2019-04-04T03:35:06.116Z,10.85
2019-04-04T03:36:10.516Z,10.84
2019-04-04T03:37:14.984Z,10.85
2019-04-04T03:38:19.078Z,10.85
2019-04-04T03:39:23.175Z,10.85
2019-04-04T03:40:27.255Z,10.87
2019-04-04T03:41:35.403Z,10.86
2019-04-04T03:42:36.970Z,10.86
2019-04-04T03:43:41.545Z,10.87
2019-04-04T03:44:45.371Z,10.88
2019-04-04T03:45:49.591Z,10.87
2019-04-04T03:46:54.186Z,10.87
2019-04-04T03:48:00.000Z,10.87
2019-04-04T03:49:04.095Z,10.86
2019-04-04T03:50:08.158Z,10.88
2019-04-04T03:51:12.258Z,10.88
2019-04-04T03:52:16.331Z,10.88
2019-04-04T03:53:21.208Z,10.88
2019-04-04T03:54:27.135Z,10.89
2019-04-04T03:55:31.615Z,10.88
2019-04-04T03:56:39.125Z,10.88
2019-04-04T03:57:41.642Z,10.87
2019-04-04T03:58:45.544Z,10.86
2019-04-04T03:59:49.623Z,10.85
2019-04-04T04:00:53.539Z,10.82
2019-04-04T04:01:58.147Z,10.80
2019-04-04T04:03:02.155Z,10.79
2019-04-04T04:04:06.239Z,10.78
2019-04-04T04:05:25.225Z,10.78
2019-04-04T04:06:29.097Z,10.78
2019-04-04T04:07:32.920Z,10.79
2019-04-04T04:08:37.161Z,10.79
2019-04-04T04:09:41.924Z,10.80
2019-04-04T04:10:45.858Z,10.82
2019-04-04T04:11:50.023Z,10.82
2019-04-04T04:12:54.544Z,10.83
2019-04-04T04:13:59.065Z,10.82
2019-04-04T04:15:03.432Z,10.82
2019-04-04T04:16:07.397Z,10.83
2019-04-04T04:17:12.637Z,10.81
2019-04-04T04:18:20.229Z,10.82
2019-04-04T04:19:24.512Z,10.81
2019-04-04T04:20:29.286Z,10.80
2019-04-04T04:21:33.133Z,10.80
2019-04-04T04:22:37.304Z,10.79
2019-04-04T04:23:41.137Z,10.79
2019-04-04T04:24:45.717Z,10.79
2019-04-04T04:25:49.825Z,10.78
2019-04-04T04:26:54.120Z,10.78
2019-04-04T04:27:57.950Z,10.78
2019-04-04T04:29:01.881Z,10.78
2019-04-04T04:30:07.592Z,10.78
2019-04-04T04:31:15.304Z,10.78
2019-04-04T04:32:21.101Z,10.78
2019-04-04T04:33:23.824Z,10.77
2019-04-04T04:34:33.037Z,10.77
2019-04-04T04:35:34.283Z,10.77
2019-04-04T04:36:38.801Z,10.76
2019-04-04T04:37:42.922Z,10.75
2019-04-04T04:38:46.762Z,10.75
2019-04-04T04:39:50.763Z,10.74
2019-04-04T04:40:54.998Z,10.74
2019-04-04T04:41:59.459Z,10.73
2019-04-04T04:43:04.031Z,10.73
2019-04-04T04:44:07.858Z,10.74
2019-04-04T04:45:12.644Z,10.73
2019-04-04T04:46:18.064Z,10.73
2019-04-04T04:47:23.905Z,10.72
2019-04-04T04:48:30.732Z,10.69
2019-04-04T04:49:35.688Z,10.71
2019-04-04T04:50:41.005Z,10.70
2019-04-04T04:51:45.451Z,10.71
2019-04-04T04:52:49.610Z,10.71
2019-04-04T04:53:54.182Z,10.70
2019-04-04T04:54:58.089Z,10.69
2019-04-04T04:56:01.924Z,10.70
2019-04-04T04:57:05.907Z,10.71
2019-04-04T04:58:11.234Z,10.75
2019-04-04T04:59:15.671Z,10.74
2019-04-04T05:00:19.657Z,10.75
2019-04-04T05:01:23.819Z,10.74
2019-04-04T05:02:28.071Z,10.73
2019-04-04T05:03:32.611Z,10.71
2019-04-04T05:04:36.606Z,10.68
2019-04-04T05:05:40.836Z,10.66
2019-04-04T05:06:45.080Z,10.65
2019-04-04T05:07:49.351Z,10.65
2019-04-04T05:08:53.195Z,10.65
2019-04-04T05:09:57.688Z,10.65
2019-04-04T05:11:02.641Z,10.66
2019-04-04T05:12:06.635Z,10.66
2019-04-04T05:14:35.925Z,10.71
2019-04-04T05:15:40.435Z,10.67
2019-04-04T05:16:44.612Z,10.68
2019-04-04T05:17:49.072Z,10.69
2019-04-04T05:18:53.504Z,10.69
2019-04-04T05:19:57.671Z,10.69
2019-04-04T05:21:02.528Z,10.69
2019-04-04T05:22:09.155Z,10.71
2019-04-04T05:23:15.453Z,10.71
2019-04-04T05:24:19.706Z,10.72
2019-04-04T05:25:23.657Z,10.73
2019-04-04T05:26:27.825Z,10.74
2019-04-04T05:27:31.939Z,10.76
2019-04-04T05:28:36.262Z,10.76
2019-04-04T05:29:40.103Z,10.77
2019-04-04T05:30:45.087Z,10.78
2019-04-04T05:31:50.698Z,10.77
2019-04-04T05:32:56.501Z,10.78
2019-04-04T05:34:01.181Z,10.78
2019-04-04T05:35:05.795Z,10.76
2019-04-04T05:36:10.072Z,10.76
2019-04-04T05:37:13.918Z,10.77
2019-04-04T05:38:18.076Z,10.77
2019-04-04T05:39:21.998Z,10.77
2019-04-04T05:40:26.026Z,10.78
2019-04-04T05:41:30.459Z,10.76
2019-04-04T05:42:34.917Z,10.77
2019-04-04T05:43:39.100Z,10.78
2019-04-04T05:44:43.504Z,10.78
2019-04-04T05:45:48.293Z,10.78
2019-04-04T05:46:52.515Z,10.79
2019-04-04T05:47:59.529Z,10.80
2019-04-04T05:49:07.823Z,10.81
2019-04-04T05:50:11.083Z,10.82
2019-04-04T05:51:15.235Z,10.81
2019-04-04T05:52:20.055Z,10.83
2019-04-04T05:53:23.977Z,10.84
2019-04-04T05:54:27.942Z,10.86
2019-04-04T05:55:32.457Z,10.87
2019-04-04T05:56:36.294Z,10.89
2019-04-04T05:57:40.664Z,10.92
2019-04-04T05:58:44.837Z,10.95
2019-04-04T05:59:49.000Z,10.97
2019-04-04T06:00:53.216Z,10.97
2019-04-04T06:01:57.374Z,11.01
2019-04-04T06:03:01.244Z,11.01
2019-04-04T06:04:05.230Z,11.03
2019-04-04T06:05:09.463Z,11.05
2019-04-04T06:06:13.440Z,11.06
2019-04-04T06:07:17.419Z,11.07
2019-04-04T06:08:21.635Z,11.08
2019-04-04T06:09:25.566Z,11.10
2019-04-04T06:10:29.898Z,11.13
2019-04-04T06:11:33.775Z,11.13
2019-04-04T06:12:37.873Z,11.11
2019-04-04T06:13:41.704Z,11.12
2019-04-04T06:14:46.088Z,11.12
2019-04-04T06:15:50.241Z,11.12
2019-04-04T06:16:54.430Z,11.13
2019-04-04T06:17:58.272Z,11.14
2019-04-04T06:19:02.111Z,11.16
2019-04-04T06:20:07.507Z,11.16
2019-04-04T06:21:12.002Z,11.17
2019-04-04T06:22:15.841Z,11.18
2019-04-04T06:23:20.608Z,11.19
2019-04-04T06:24:25.214Z,11.19
2019-04-04T06:25:34.387Z,11.20
2019-04-04T06:26:38.206Z,11.18
2019-04-04T06:27:42.266Z,11.17
2019-04-04T06:28:46.434Z,11.16
2019-04-04T06:29:50.609Z,11.16
2019-04-04T06:30:54.945Z,11.17
2019-04-04T06:32:00.406Z,11.18
2019-04-04T06:33:05.183Z,11.18
2019-04-04T06:34:10.489Z,11.17
2019-04-04T06:35:15.439Z,11.16
2019-04-04T06:36:19.907Z,11.16
2019-04-04T06:37:24.052Z,11.16
2019-04-04T06:38:27.973Z,11.14
2019-04-04T06:39:31.875Z,11.15
2019-04-04T06:40:36.161Z,11.13
2019-04-04T06:41:40.686Z,11.12
2019-04-04T06:42:45.431Z,11.10
2019-04-04T06:43:49.677Z,11.09
2019-04-04T06:44:54.295Z,11.10
2019-04-04T06:45:58.979Z,11.08
2019-04-04T06:47:03.363Z,11.06
2019-04-04T06:48:07.438Z,11.06
2019-04-04T06:49:11.435Z,11.05
2019-04-04T06:50:15.515Z,11.04
2019-04-04T06:51:19.852Z,11.02
2019-04-04T06:52:23.699Z,11.03
2019-04-04T06:53:27.843Z,11.06
2019-04-04T06:54:31.765Z,11.02
2019-04-04T06:55:39.911Z,10.97
2019-04-04T06:56:41.887Z,11.01
2019-04-04T06:57:48.001Z,10.93
2019-04-04T06:58:52.655Z,10.85
2019-04-04T06:59:56.498Z,10.81
2019-04-04T07:01:00.895Z,10.78
2019-04-04T07:02:05.342Z,10.75
2019-04-04T07:03:09.326Z,10.78
2019-04-04T07:04:13.654Z,10.75
2019-04-04T07:05:17.736Z,10.77
2019-04-04T07:06:21.904Z,10.73
2019-04-04T07:07:26.222Z,10.72
2019-04-04T07:08:30.561Z,10.70
2019-04-04T07:09:37.177Z,10.69
2019-04-04T07:10:41.381Z,10.69
2019-04-04T07:11:45.376Z,10.69
2019-04-04T07:12:49.664Z,10.68
2019-04-04T07:13:53.507Z,10.67
2019-04-04T07:14:57.506Z,10.69
2019-04-04T07:16:07.001Z,10.73
2019-04-04T07:17:08.780Z,10.72
2019-04-04T07:18:13.256Z,10.70
2019-04-04T07:19:17.454Z,10.67
2019-04-04T07:20:21.380Z,10.68
2019-04-04T07:21:25.310Z,10.68
2019-04-04T07:22:29.305Z,10.70
2019-04-04T07:23:33.920Z,10.68
2019-04-04T07:24:38.457Z,10.70
2019-04-04T07:25:42.933Z,10.67
2019-04-04T07:26:46.793Z,10.64
2019-04-04T07:27:50.746Z,10.66
2019-04-04T07:28:54.932Z,10.66
2019-04-04T07:29:58.769Z,10.64
2019-04-04T07:31:02.634Z,10.61
2019-04-04T07:32:09.055Z,10.62
2019-04-04T07:33:13.373Z,10.59
2019-04-04T07:34:17.501Z,10.61
2019-04-04T07:35:21.338Z,10.63
2019-04-04T07:36:25.212Z,10.63
2019-04-04T07:37:29.051Z,10.63
2019-04-04T07:38:35.013Z,10.62
2019-04-04T07:39:38.951Z,10.64
2019-04-04T07:40:43.075Z,10.63
2019-04-04T07:41:47.659Z,10.69
2019-04-04T07:42:51.869Z,10.66
2019-04-04T07:43:58.515Z,10.62
2019-04-04T07:45:01.391Z,10.65
2019-04-04T07:46:16.397Z,10.64
2019-04-04T07:47:11.341Z,10.61
2019-04-04T07:48:17.638Z,10.59
2019-04-04T07:49:23.333Z,10.58
2019-04-04T07:50:27.810Z,10.63
2019-04-04T07:51:31.974Z,10.59
2019-04-04T07:52:36.174Z,10.59
2019-04-04T07:53:40.321Z,10.61
2019-04-04T07:54:44.418Z,10.63
2019-04-04T07:55:48.707Z,10.60
2019-04-04T07:56:52.723Z,10.61
2019-04-04T07:57:57.195Z,10.62
2019-04-04T07:59:01.504Z,10.62
2019-04-04T08:00:07.092Z,10.67
2019-04-04T08:01:11.658Z,10.64
2019-04-04T08:02:16.379Z,10.73
2019-04-04T08:03:20.580Z,10.73
2019-04-04T08:04:24.786Z,10.69
2019-04-04T08:05:28.633Z,10.70
2019-04-04T08:06:32.620Z,10.71
2019-04-04T08:07:37.509Z,10.73
2019-04-04T08:08:41.684Z,10.83
2019-04-04T08:09:45.771Z,10.77
2019-04-04T08:10:50.210Z,10.74
2019-04-04T08:11:54.371Z,10.76
2019-04-04T08:12:58.529Z,10.76
2019-04-04T08:14:02.805Z,10.76
2019-04-04T08:15:07.404Z,10.82
2019-04-04T08:16:11.250Z,10.75
2019-04-04T08:17:15.478Z,10.76
2019-04-04T08:18:19.382Z,10.75
2019-04-04T08:19:23.479Z,10.77
2019-04-04T08:20:27.469Z,10.80
2019-04-04T08:21:31.744Z,10.84
2019-04-04T08:22:35.583Z,10.91
2019-04-04T08:23:39.996Z,10.89
2019-04-04T08:24:44.080Z,10.91
2019-04-04T08:25:48.479Z,10.92
2019-04-04T08:26:52.816Z,10.94
2019-04-04T08:27:56.902Z,10.93
2019-04-04T08:29:01.653Z,10.97
2019-04-04T08:30:06.088Z,10.92
2019-04-04T08:31:10.817Z,10.92
2019-04-04T08:32:14.901Z,10.94
2019-04-04T08:33:19.237Z,10.96
2019-04-04T08:34:23.687Z,11.06
2019-04-04T08:35:27.832Z,11.05
2019-04-04T08:36:31.986Z,11.11
2019-04-04T08:37:36.472Z,11.07
2019-04-04T08:38:40.396Z,11.04
2019-04-04T08:39:44.548Z,11.07
2019-04-04T08:40:48.464Z,11.10
2019-04-04T08:41:52.660Z,11.08
2019-04-04T08:42:56.810Z,11.15
2019-04-04T08:44:00.661Z,11.12
2019-04-04T08:45:04.999Z,11.09
2019-04-04T08:46:08.913Z,11.06
2019-04-04T08:47:12.830Z,11.06
2019-04-04T08:48:17.218Z,11.06
2019-04-04T08:49:21.153Z,11.09
2019-04-04T08:50:25.377Z,11.11
2019-04-04T08:51:29.658Z,11.11
2019-04-04T08:52:33.942Z,11.12
2019-04-04T08:53:40.137Z,11.16
2019-04-04T08:54:44.294Z,11.18
2019-04-04T08:55:48.391Z,11.18
2019-04-04T08:56:52.380Z,11.15
2019-04-04T08:57:56.316Z,11.21
2019-04-04T08:59:00.251Z,11.13
2019-04-04T09:00:04.948Z,11.15
2019-04-04T09:01:09.140Z,11.12
2019-04-04T09:02:13.064Z,11.08
2019-04-04T09:03:17.530Z,11.08
2019-04-04T09:04:23.926Z,11.10
2019-04-04T09:05:27.040Z,11.09
2019-04-04T09:06:31.150Z,11.15
2019-04-04T09:07:35.692Z,11.11
2019-04-04T09:08:39.687Z,11.12
2019-04-04T09:09:43.695Z,11.13
2019-04-04T09:10:48.004Z,11.16
2019-04-04T09:11:52.199Z,11.22
2019-04-04T09:12:56.512Z,11.24
2019-04-04T09:14:00.432Z,11.21
2019-04-04T09:15:05.552Z,11.20
2019-04-04T09:16:09.733Z,11.20
2019-04-04T09:17:14.107Z,11.19
2019-04-04T09:18:18.907Z,11.17
2019-04-04T09:19:22.830Z,11.18
2019-04-04T09:20:26.671Z,11.21
2019-04-04T09:21:30.588Z,11.25
2019-04-04T09:22:34.997Z,11.29
2019-04-04T09:23:38.979Z,11.35
2019-04-04T09:24:43.024Z,11.39
2019-04-04T09:25:46.956Z,11.41
2019-04-04T09:26:51.287Z,11.43
2019-04-04T09:27:55.624Z,11.45
2019-04-04T09:28:59.902Z,11.47
2019-04-04T09:30:04.966Z,11.51
2019-04-04T09:31:08.959Z,11.56
2019-04-04T09:32:12.811Z,11.60
2019-04-04T09:33:17.087Z,11.60
2019-04-04T09:34:21.545Z,11.63
2019-04-04T09:35:25.538Z,11.68
2019-04-04T09:36:29.532Z,11.62
2019-04-04T09:37:33.736Z,11.60
2019-04-04T09:38:38.189Z,11.57
2019-04-04T09:39:42.734Z,11.56
2019-04-04T09:40:46.604Z,11.56
2019-04-04T09:41:50.884Z,11.56
2019-04-04T09:42:55.247Z,11.55
2019-04-04T09:43:59.100Z,11.56
2019-04-04T09:45:03.159Z,11.57
2019-04-04T09:46:07.399Z,11.57
2019-04-04T09:47:11.311Z,11.58
2019-04-04T09:48:15.302Z,11.56
2019-04-04T09:49:19.818Z,11.61
2019-04-04T09:50:23.732Z,11.55
2019-04-04T09:51:27.573Z,11.54
2019-04-04T09:52:31.487Z,11.55
2019-04-04T09:53:35.406Z,11.57
2019-04-04T09:54:39.926Z,11.52
2019-04-04T09:55:43.903Z,11.61
2019-04-04T09:56:47.891Z,11.60
2019-04-04T09:57:51.723Z,11.60
2019-04-04T09:58:55.811Z,11.59
2019-04-04T09:59:59.979Z,11.57
2019-04-04T10:01:06.611Z,11.55
2019-04-04T10:02:10.676Z,11.57
2019-04-04T10:03:14.913Z,11.59
2019-04-04T10:04:19.004Z,11.61
2019-04-04T10:05:22.920Z,11.65
2019-04-04T10:06:26.752Z,11.68
2019-04-04T10:07:30.848Z,11.66
2019-04-04T10:08:34.769Z,11.61
2019-04-04T10:09:38.939Z,11.57
2019-04-04T10:10:43.024Z,11.58
2019-04-04T10:11:46.937Z,11.53
2019-04-04T10:12:50.846Z,11.52
2019-04-04T10:13:54.700Z,11.50
2019-04-04T10:14:58.624Z,11.50
2019-04-04T10:16:02.630Z,11.52
2019-04-04T10:17:06.642Z,11.53
2019-04-04T10:18:10.871Z,11.55
2019-04-04T10:19:14.783Z,11.51
2019-04-04T10:20:18.786Z,11.49
2019-04-04T10:21:22.795Z,11.46
2019-04-04T10:22:26.779Z,11.49
2019-04-04T10:23:30.691Z,11.51
2019-04-04T10:24:34.804Z,11.50
2019-04-04T10:25:38.967Z,11.46
2019-04-04T10:26:43.237Z,11.45
2019-04-04T10:27:47.792Z,11.45
2019-04-04T10:28:51.970Z,11.38
2019-04-04T10:29:56.145Z,11.36
2019-04-04T10:31:00.060Z,11.36
2019-04-04T10:32:04.300Z,11.42
2019-04-04T10:33:08.889Z,11.40
2019-04-04T10:34:12.795Z,11.42
2019-04-04T10:35:16.796Z,11.42
2019-04-04T10:36:20.641Z,11.42
2019-04-04T10:37:24.622Z,11.45
2019-04-04T10:38:28.876Z,11.43
2019-04-04T10:39:33.157Z,11.43
2019-04-04T10:40:37.150Z,11.44
2019-04-04T10:41:41.517Z,11.45
2019-04-04T10:42:45.715Z,11.46
2019-04-04T10:43:50.217Z,11.45
2019-04-04T10:44:54.792Z,11.47
2019-04-04T10:45:58.779Z,11.43
2019-04-04T10:47:03.057Z,11.45
2019-04-04T10:48:07.043Z,11.42
2019-04-04T10:49:11.210Z,11.42
2019-04-04T10:50:16.262Z,11.42
2019-04-04T10:51:20.248Z,11.41
2019-04-04T10:52:24.450Z,11.37
2019-04-04T10:53:28.291Z,11.35
2019-04-04T10:54:32.347Z,11.31
2019-04-04T10:55:37.006Z,11.26
2019-04-04T10:56:41.190Z,11.25
2019-04-04T10:57:45.376Z,11.23
2019-04-04T10:58:49.292Z,11.23
2019-04-04T10:59:54.501Z,11.21
2019-04-04T11:00:59.118Z,11.21
2019-04-04T11:02:03.053Z,11.21
2019-04-04T11:03:07.244Z,11.21
2019-04-04T11:04:11.364Z,11.21
2019-04-04T11:05:15.873Z,11.19
2019-04-04T11:06:20.115Z,11.20
2019-04-04T11:07:24.032Z,11.23
2019-04-04T11:08:28.004Z,11.24
2019-04-04T11:09:41.993Z,11.26
2019-04-04T11:10:38.462Z,11.27
2019-04-04T11:11:42.434Z,11.28
2019-04-04T11:12:46.650Z,11.29
2019-04-04T11:13:50.573Z,11.28
2019-04-04T11:14:54.452Z,11.28
2019-04-04T11:15:58.639Z,11.27
2019-04-04T11:17:03.092Z,11.29
2019-04-04T11:18:07.350Z,11.32
2019-04-04T11:19:11.759Z,11.35
2019-04-04T11:20:16.110Z,11.38
2019-04-04T11:21:20.684Z,11.37
2019-04-04T11:22:25.249Z,11.37
2019-04-04T11:23:29.504Z,11.38
2019-04-04T11:24:33.353Z,11.39
2019-04-04T11:25:37.612Z,11.42
2019-04-04T11:26:41.959Z,11.44
2019-04-04T11:27:45.901Z,11.48
2019-04-04T11:28:50.024Z,11.51
2019-04-04T11:29:53.955Z,11.54
2019-04-04T11:30:58.706Z,11.58
2019-04-04T11:32:02.958Z,11.62
2019-04-04T11:33:07.208Z,11.64
2019-04-04T11:34:11.130Z,11.65
2019-04-04T11:35:15.676Z,11.66
2019-04-04T11:36:19.648Z,11.68
2019-04-04T11:37:23.673Z,11.63
2019-04-04T11:38:28.347Z,11.62
2019-04-04T11:39:32.264Z,11.62
2019-04-04T11:40:36.528Z,11.60
2019-04-04T11:41:41.008Z,11.48
2019-04-04T11:42:45.312Z,11.43
2019-04-04T11:43:49.242Z,11.40
2019-04-04T11:44:53.142Z,11.37
2019-04-04T11:45:57.075Z,11.36
2019-04-04T11:47:01.268Z,11.34
2019-04-04T11:48:05.266Z,11.36
2019-04-04T11:49:09.189Z,11.36
2019-04-04T11:50:14.870Z,11.38
2019-04-04T11:51:18.968Z,11.40
2019-04-04T11:52:22.899Z,11.42
2019-04-04T11:53:27.066Z,11.45
2019-04-04T11:54:30.940Z,11.47
2019-04-04T11:55:35.163Z,11.50
2019-04-04T11:56:39.092Z,11.49
2019-04-04T11:57:42.941Z,11.48
2019-04-04T11:58:47.166Z,11.50
2019-04-04T11:59:51.390Z,11.53
2019-04-04T12:00:56.249Z,11.53
2019-04-04T12:02:00.229Z,11.56
2019-04-04T12:03:04.166Z,11.59
2019-04-04T12:04:08.141Z,11.63
2019-04-04T12:05:12.129Z,11.63
2019-04-04T12:06:15.974Z,11.64
2019-04-04T12:07:19.825Z,11.66
2019-04-04T12:08:24.000Z,11.68
2019-04-04T12:09:27.838Z,11.70
2019-04-04T12:10:32.161Z,11.71
2019-04-04T12:11:36.098Z,11.73
2019-04-04T12:12:40.011Z,11.75
2019-04-04T12:13:43.939Z,11.79
2019-04-04T12:14:47.885Z,11.84
2019-04-04T12:15:52.169Z,11.89
2019-04-04T12:16:56.617Z,11.92
2019-04-04T12:18:01.214Z,11.97
2019-04-04T12:19:05.198Z,12.01
2019-04-04T12:20:10.260Z,11.93
2019-04-04T12:21:15.008Z,11.88
2019-04-04T12:22:18.852Z,11.93
2019-04-04T12:23:23.287Z,11.89
2019-04-04T12:24:27.798Z,11.87
2019-04-04T12:25:32.083Z,11.89
2019-04-04T12:26:36.072Z,11.91
2019-04-04T12:27:40.258Z,11.95
2019-04-04T12:28:44.246Z,12.02
2019-04-04T12:29:48.937Z,12.09
2019-04-04T12:30:53.154Z,12.14
2019-04-04T12:31:57.723Z,12.18
2019-04-04T12:33:01.733Z,12.22
2019-04-04T12:34:05.731Z,12.24
2019-04-04T12:35:09.818Z,12.28
2019-04-04T12:36:24.126Z,12.21
2019-04-04T12:37:19.553Z,12.35
2019-04-04T12:38:23.745Z,12.35
2019-04-04T12:39:27.657Z,12.35
2019-04-04T12:40:31.642Z,12.39
2019-04-04T12:41:35.586Z,12.42
2019-04-04T12:42:40.135Z,12.44
2019-04-04T12:43:44.293Z,12.45
2019-04-04T12:44:48.221Z,12.47
2019-04-04T12:45:52.820Z,12.50
2019-04-04T12:46:57.145Z,12.48
2019-04-04T12:48:01.365Z,12.42
2019-04-04T12:49:05.580Z,12.40
2019-04-04T12:50:09.809Z,12.35
2019-04-04T12:51:13.825Z,12.33
2019-04-04T12:52:18.051Z,12.28
2019-04-04T12:53:22.682Z,12.28
2019-04-04T12:54:26.725Z,12.20
2019-04-04T12:55:30.646Z,12.13
2019-04-04T12:56:35.433Z,12.07
2019-04-04T12:57:39.758Z,12.11
2019-04-04T12:58:44.102Z,12.06
2019-04-04T12:59:48.190Z,11.99
2019-04-04T13:00:52.206Z,11.97
2019-04-04T13:01:56.030Z,11.95
2019-04-04T13:02:59.858Z,11.91
2019-04-04T13:04:03.770Z,11.90
2019-04-04T13:05:08.664Z,11.92
2019-04-04T13:06:12.760Z,11.96
2019-04-04T13:07:16.742Z,12.01
2019-04-04T13:08:20.722Z,12.04
2019-04-04T13:09:24.709Z,12.03
2019-04-04T13:10:33.274Z,12.03
2019-04-04T13:11:34.372Z,11.97
2019-04-04T13:12:38.270Z,11.92
2019-04-04T13:13:42.338Z,11.97
2019-04-04T13:14:46.250Z,11.91
2019-04-04T13:15:50.149Z,11.89
2019-04-04T13:16:54.254Z,11.81
2019-04-04T13:17:58.171Z,11.71
2019-04-04T13:19:02.572Z,11.73
2019-04-04T13:20:08.393Z,11.64
2019-04-04T13:21:12.381Z,11.58
2019-04-04T13:22:16.353Z,11.55
2019-04-04T13:23:20.256Z,11.56
2019-04-04T13:24:24.085Z,11.65
2019-04-04T13:25:28.571Z,11.62
2019-04-04T13:26:32.730Z,11.62
2019-04-04T13:27:36.958Z,11.66
2019-04-04T13:28:41.358Z,11.67
2019-04-04T13:29:45.351Z,11.68
2019-04-04T13:30:49.823Z,11.69
2019-04-04T13:31:53.761Z,11.71
2019-04-04T13:32:57.987Z,11.73
2019-04-04T13:34:02.271Z,11.77
2019-04-04T13:35:06.424Z,11.79
2019-04-04T13:36:10.667Z,11.76
2019-04-04T13:37:14.787Z,11.81
2019-04-04T13:38:18.617Z,11.77
2019-04-04T13:39:22.794Z,11.70
2019-04-04T13:40:27.138Z,11.67
2019-04-04T13:41:31.341Z,11.65
2019-04-04T13:42:35.734Z,11.66
2019-04-04T13:43:39.574Z,11.67
2019-04-04T13:44:44.957Z,11.70
2019-04-04T13:45:49.478Z,11.73
2019-04-04T13:46:53.574Z,11.74
2019-04-04T13:47:57.891Z,11.73
2019-04-04T13:49:01.998Z,11.63
2019-04-04T13:50:07.129Z,11.55
2019-04-04T13:51:11.147Z,11.51